Aviation Digital Data Service (ADDS)

Output produced by TAFs form (2340 UTC 18 July 2018)
found at http://www.aviationweather.gov/adds/tafs/
 
RJFT 182300Z 02003KT 330V060 7000 NSC 27/25 Q1012
TAF RJFT 182310Z 1900/2006 06005KT 9999 FEW035 
     BECMG 1904/1906 21006KT 
     BECMG 1912/1915 09008KT